Time;durP1;ratioP1;P1;durP2;ratioP2;P2;SDS_P1;SDS_P2;PMS_P1;PMS_P2;Temp;Humidity;BMP_temperature;BMP_pressure;BME280_temperature;BME280_humidity;BME280_pressure;Samples;Min_cycle;Max_cycle;Signal;HPM_P1;HPM_P2
2023/01/31 00:02:05;;;;;;;31.25;3.80;;;3.80;99.90;;;;;;6128731;23;20649;-81
2023/01/31 00:04:31;;;;;;;25.17;3.28;;;3.80;99.90;;;;;;6152830;23;20076;-81
2023/01/31 00:06:56;;;;;;;26.38;3.38;;;3.80;99.90;;;;;;6153009;23;20017;-81
2023/01/31 00:09:22;;;;;;;23.88;2.63;;;3.70;99.90;;;;;;6152657;23;20706;-81
2023/01/31 00:11:47;;;;;;;25.90;3.85;;;3.70;99.90;;;;;;6127315;23;20045;-81
2023/01/31 00:14:18;;;;;;;25.15;3.33;;;3.60;99.90;;;;;;6152857;23;20017;-81
2023/01/31 00:16:43;;;;;;;26.20;3.50;;;3.60;99.90;;;;;;6151754;23;20156;-81
2023/01/31 00:19:09;;;;;;;17.08;2.83;;;3.60;99.90;;;;;;6128548;23;20048;-81
2023/01/31 00:21:34;;;;;;;23.35;2.97;;;3.50;99.90;;;;;;6127528;23;20948;-81
2023/01/31 00:24:00;;;;;;;24.00;3.20;;;3.50;99.90;;;;;;6127648;23;20006;-81
2023/01/31 00:26:31;;;;;;;22.27;3.33;;;3.50;99.90;;;;;;6127339;23;20097;-81
2023/01/31 00:28:58;;;;;;;19.17;2.75;;;3.50;99.90;;;;;;6129183;23;20017;-81
2023/01/31 00:31:25;;;;;;;21.55;2.38;;;3.50;99.90;;;;;;6128386;23;20009;-81
2023/01/31 00:33:52;;;;;;;17.05;2.38;;;3.50;99.90;;;;;;6128154;23;20068;-81
2023/01/31 00:36:23;;;;;;;22.35;2.72;;;3.40;99.90;;;;;;6126950;23;20022;-81
2023/01/31 00:38:51;;;;;;;20.48;3.53;;;3.40;99.90;;;;;;6128261;23;20009;-81
2023/01/31 00:41:22;;;;;;;12.30;2.00;;;3.30;99.90;;;;;;6152672;23;20014;-81
2023/01/31 00:43:48;;;;;;;13.88;2.67;;;3.30;99.90;;;;;;6128512;23;20501;-81
2023/01/31 00:46:13;;;;;;;18.00;2.58;;;3.30;99.90;;;;;;6152123;23;20017;-81
2023/01/31 00:48:39;;;;;;;19.88;2.55;;;3.30;99.90;;;;;;6128543;23;20040;-81
2023/01/31 00:51:05;;;;;;;23.08;3.05;;;3.30;99.90;;;;;;6152933;23;20397;-81
2023/01/31 00:53:31;;;;;;;16.23;2.70;;;3.30;99.90;;;;;;6128220;23;20033;-81
2023/01/31 00:56:08;;;;;;;21.35;2.20;;;3.30;99.90;;;;;;6126855;23;20049;-81
2023/01/31 00:58:35;;;;;;;12.80;3.17;;;3.20;99.90;;;;;;6129636;23;20024;-81
2023/01/31 01:01:08;;;;;;;19.80;2.88;;;3.20;99.90;;;;;;6152814;23;20033;-81
2023/01/31 01:03:34;;;;;;;21.33;3.20;;;3.20;99.90;;;;;;6128063;23;20069;-81
2023/01/31 01:05:59;;;;;;;21.55;3.33;;;3.10;99.90;;;;;;6151101;23;20458;-81
2023/01/31 01:08:25;;;;;;;19.95;3.40;;;3.10;99.90;;;;;;6153563;23;20028;-81
2023/01/31 01:10:51;;;;;;;18.00;2.30;;;3.10;99.90;;;;;;6152955;23;20357;-81
2023/01/31 01:13:16;;;;;;;27.55;3.03;;;3.10;99.90;;;;;;6128490;23;20023;-81
2023/01/31 01:15:42;;;;;;;23.88;3.58;;;3.00;99.90;;;;;;6151046;23;20056;-81
2023/01/31 01:18:08;;;;;;;20.17;3.03;;;3.10;99.90;;;;;;6151510;23;20029;-80
2023/01/31 01:20:34;;;;;;;19.98;3.05;;;3.00;99.90;;;;;;6126785;23;20016;-81
2023/01/31 01:23:00;;;;;;;22.23;3.08;;;3.10;99.90;;;;;;6152993;23;20017;-81
2023/01/31 01:25:25;;;;;;;21.77;4.50;;;3.00;99.90;;;;;;6151269;23;20017;-81
2023/01/31 01:27:51;;;;;;;19.55;2.22;;;3.00;99.90;;;;;;6152996;23;20009;-81
2023/01/31 01:30:17;;;;;;;12.70;1.75;;;3.00;99.90;;;;;;6152562;23;20016;-81
2023/01/31 01:32:42;;;;;;;24.95;2.70;;;3.00;99.90;;;;;;6127225;23;20064;-81
2023/01/31 01:35:09;;;;;;;22.45;2.75;;;3.00;99.90;;;;;;6151139;23;20021;-81
2023/01/31 01:37:35;;;;;;;19.45;2.60;;;3.10;99.90;;;;;;6127963;23;20022;-81
2023/01/31 01:40:00;;;;;;;19.92;4.07;;;3.00;99.90;;;;;;6127523;23;20013;-81
2023/01/31 01:42:26;;;;;;;22.30;3.20;;;3.00;99.90;;;;;;6153295;23;20045;-81
2023/01/31 01:44:58;;;;;;;18.80;3.03;;;3.00;99.90;;;;;;6126979;23;20458;-81
2023/01/31 01:47:43;;;;;;;18.65;2.40;;;3.10;99.90;;;;;;6126625;23;20100;-81
2023/01/31 01:50:12;;;;;;;14.90;2.13;;;3.00;99.90;;;;;;6151208;23;20018;-81
2023/01/31 01:53:00;;;;;;;20.30;2.30;;;3.00;99.90;;;;;;6128040;23;20320;-81
2023/01/31 01:55:34;;;;;;;20.60;2.55;;;3.00;99.90;;;;;;6149675;23;20021;-81
2023/01/31 01:58:08;;;;;;;19.55;2.90;;;3.10;99.90;;;;;;6151741;23;20021;-81
2023/01/31 02:00:35;;;;;;;23.80;3.67;;;3.10;99.90;;;;;;6150496;23;20024;-81
2023/01/31 02:03:04;;;;;;;15.10;2.08;;;3.10;99.90;;;;;;6127484;23;20014;-81
2023/01/31 02:05:33;;;;;;;16.60;1.92;;;3.00;99.90;;;;;;6125246;23;20049;-80
2023/01/31 02:08:01;;;;;;;18.55;2.70;;;3.10;99.90;;;;;;6127034;23;20013;-81
2023/01/31 02:10:37;;;;;;;20.17;2.78;;;3.00;99.90;;;;;;6150662;23;20445;-80
2023/01/31 02:13:03;;;;;;;25.25;3.38;;;3.00;99.90;;;;;;6128241;23;20064;-81
2023/01/31 02:15:30;;;;;;;13.80;1.98;;;3.00;99.90;;;;;;6125947;23;20092;-80
2023/01/31 02:17:56;;;;;;;18.42;2.58;;;3.00;99.90;;;;;;6152429;23;20022;-81
2023/01/31 02:20:59;;;;;;;17.92;1.98;;;3.00;99.90;;;;;;6151078;23;20343;-81
2023/01/31 02:24:04;;;;;;;19.33;2.20;;;3.10;99.90;;;;;;6151771;23;20072;-80
2023/01/31 02:26:51;;;;;;;15.38;2.78;;;3.00;99.90;;;;;;6125935;23;20024;-80
2023/01/31 02:29:26;;;;;;;16.77;2.20;;;3.00;99.90;;;;;;6126164;23;20017;-81
2023/01/31 02:32:30;;;;;;;16.38;2.13;;;3.10;99.90;;;;;;6152010;23;20032;-81
2023/01/31 02:35:09;;;;;;;17.42;2.42;;;3.10;99.90;;;;;;6150147;23;20353;-81
2023/01/31 02:38:02;;;;;;;22.25;2.72;;;3.00;99.90;;;;;;6151235;23;20025;-80
2023/01/31 02:40:38;;;;;;;19.00;2.00;;;3.00;99.90;;;;;;6150854;23;20017;-81
2023/01/31 02:43:14;;;;;;;18.58;2.90;;;3.10;99.90;;;;;;6150420;23;20390;-81
2023/01/31 02:45:44;;;;;;;17.05;2.00;;;3.00;99.90;;;;;;6126553;23;20064;-81
2023/01/31 02:48:29;;;;;;;17.77;2.30;;;3.10;99.90;;;;;;6126910;23;20374;-81
2023/01/31 02:51:26;;;;;;;20.02;2.63;;;3.10;99.90;;;;;;6128216;23;20902;-81
2023/01/31 02:56:13;;;;;;;15.60;2.67;;;3.20;99.90;;;;;;6128567;23;20013;-81
2023/01/31 02:57:09;;;;;;;16.45;3.20;;;3.20;99.90;;;;;;6152816;23;20032;-81
2023/01/31 02:59:34;;;;;;;13.30;2.03;;;3.20;99.90;;;;;;6129605;23;20018;-82
2023/01/31 03:02:02;;;;;;;16.80;2.83;;;3.30;99.90;;;;;;6129354;23;20009;-81
2023/01/31 03:04:32;;;;;;;22.23;3.05;;;3.30;99.90;;;;;;6128394;23;20021;-81
2023/01/31 03:07:07;;;;;;;15.60;1.98;;;3.40;99.90;;;;;;6127900;23;20097;-81
2023/01/31 03:09:52;;;;;;;20.02;2.65;;;3.40;99.90;;;;;;6153017;23;20484;-80
2023/01/31 03:12:17;;;;;;;13.63;1.92;;;3.40;99.90;;;;;;6154390;23;20032;-81
2023/01/31 03:15:02;;;;;;;23.95;3.58;;;3.40;99.90;;;;;;6129051;23;20785;-81
2023/01/31 03:17:42;;;;;;;20.25;2.15;;;3.50;99.90;;;;;;6128997;23;20032;-80
2023/01/31 03:20:36;;;;;;;16.33;2.25;;;3.50;99.90;;;;;;6152880;23;20020;-81
2023/01/31 03:23:07;;;;;;;21.85;2.70;;;3.50;99.90;;;;;;6153576;23;20045;-81
2023/01/31 03:25:35;;;;;;;19.55;2.67;;;3.60;99.90;;;;;;6127384;23;20072;-81
2023/01/31 03:28:05;;;;;;;13.35;2.00;;;3.60;99.90;;;;;;6129216;23;20032;-81
2023/01/31 03:30:39;;;;;;;17.67;2.20;;;3.70;99.90;;;;;;6129245;23;20014;-81
2023/01/31 03:33:15;;;;;;;19.23;2.42;;;3.70;99.90;;;;;;6128984;23;20014;-81
2023/01/31 03:35:45;;;;;;;18.15;2.33;;;3.70;99.90;;;;;;6127507;23;20509;-81
2023/01/31 03:38:19;;;;;;;19.42;3.90;;;3.80;99.90;;;;;;6153906;23;20065;-81
2023/01/31 03:40:55;;;;;;;22.30;2.70;;;3.80;99.90;;;;;;6128270;23;20084;-81
2023/01/31 03:43:45;;;;;;;15.77;2.72;;;3.80;99.90;;;;;;6153971;23;20024;-81
2023/01/31 03:46:31;;;;;;;21.25;3.22;;;3.80;99.90;;;;;;6151643;23;20719;-81
2023/01/31 03:48:59;;;;;;;17.38;2.33;;;3.90;99.90;;;;;;6128549;23;20045;-81
2023/01/31 03:51:28;;;;;;;19.85;2.28;;;3.90;99.90;;;;;;6151277;23;20017;-81
2023/01/31 03:53:59;;;;;;;18.98;4.10;;;4.00;99.90;;;;;;6129591;23;20470;-81
2023/01/31 03:56:55;;;;;;;26.17;3.63;;;4.00;99.90;;;;;;6152733;23;20769;-81
2023/01/31 03:59:29;;;;;;;26.00;3.60;;;4.00;99.90;;;;;;6127157;23;20040;-81
2023/01/31 04:01:57;;;;;;;32.05;3.05;;;4.00;99.90;;;;;;6129530;23;20013;-80
2023/01/31 04:04:43;;;;;;;23.77;3.88;;;4.00;99.90;;;;;;6153557;23;20009;-81
2023/01/31 04:07:09;;;;;;;23.42;3.35;;;4.10;99.90;;;;;;6128333;23;20021;-81
2023/01/31 04:09:36;;;;;;;17.98;3.05;;;4.10;99.90;;;;;;6152996;23;20017;-81
2023/01/31 04:12:02;;;;;;;18.70;3.00;;;4.10;99.90;;;;;;6152769;23;20013;-81
2023/01/31 04:14:29;;;;;;;18.60;3.00;;;4.10;99.90;;;;;;6154067;23;20021;-81
2023/01/31 04:16:54;;;;;;;17.92;2.15;;;4.10;99.90;;;;;;6128284;23;20040;-81
2023/01/31 04:19:20;;;;;;;21.92;3.08;;;4.10;99.90;;;;;;6129017;23;20014;-81
2023/01/31 04:21:45;;;;;;;34.92;4.25;;;4.20;99.90;;;;;;6128238;23;20065;-81
2023/01/31 04:24:11;;;;;;;19.08;2.90;;;4.30;99.90;;;;;;6152822;23;20009;-81
2023/01/31 04:26:36;;;;;;;24.15;4.45;;;4.30;99.90;;;;;;6127316;23;20013;-81
2023/01/31 04:29:03;;;;;;;19.23;2.25;;;4.30;99.90;;;;;;6152896;23;20049;-81
2023/01/31 04:31:29;;;;;;;27.75;3.95;;;4.40;99.90;;;;;;6127215;23;20457;-81
2023/01/31 04:33:56;;;;;;;19.80;3.70;;;4.50;99.90;;;;;;6153555;23;20018;-82
2023/01/31 04:36:23;;;;;;;25.35;3.88;;;4.50;99.90;;;;;;6126588;23;20108;-82
2023/01/31 04:38:48;;;;;;;21.58;3.63;;;4.60;99.90;;;;;;6153371;23;20350;-82
2023/01/31 04:41:14;;;;;;;19.83;2.97;;;4.60;99.90;;;;;;6152853;23;20092;-82
2023/01/31 04:43:39;;;;;;;25.02;5.35;;;4.60;99.90;;;;;;6127994;23;20017;-82
2023/01/31 04:46:05;;;;;;;23.05;3.75;;;4.60;99.90;;;;;;6151060;23;20072;-82
2023/01/31 04:48:31;;;;;;;12.85;2.50;;;4.60;99.90;;;;;;6152466;23;20021;-82
2023/01/31 04:50:56;;;;;;;20.02;2.75;;;4.60;99.90;;;;;;6152448;23;20533;-82
2023/01/31 04:53:22;;;;;;;25.77;3.50;;;4.70;99.90;;;;;;6128286;23;20036;-81
2023/01/31 04:55:47;;;;;;;20.98;3.47;;;4.70;99.90;;;;;;6127024;23;20024;-81
2023/01/31 04:58:13;;;;;;;25.70;4.95;;;4.70;99.90;;;;;;6127651;23;20020;-82
2023/01/31 05:00:39;;;;;;;25.20;4.07;;;4.60;99.90;;;;;;6127817;23;20068;-82
2023/01/31 05:03:04;;;;;;;23.83;3.50;;;4.60;99.90;;;;;;6153058;23;20021;-82
2023/01/31 05:05:32;;;;;;;28.08;4.97;;;4.60;99.90;;;;;;6151232;23;20067;-82
2023/01/31 05:07:57;;;;;;;27.98;3.67;;;4.70;99.90;;;;;;6148580;23;20762;-82
2023/01/31 05:10:23;;;;;;;27.98;4.18;;;4.60;99.90;;;;;;6126552;23;20044;-82
2023/01/31 05:12:48;;;;;;;22.77;3.58;;;4.60;99.90;;;;;;6152115;23;20041;-81
2023/01/31 05:15:14;;;;;;;27.42;3.40;;;4.70;99.90;;;;;;6126397;23;20021;-81
2023/01/31 05:17:40;;;;;;;20.10;4.38;;;5.10;99.90;;;;;;6150755;23;20014;-82
2023/01/31 05:20:06;;;;;;;21.90;4.40;;;4.70;99.90;;;;;;6126026;23;20092;-81
2023/01/31 05:22:32;;;;;;;26.75;4.65;;;4.70;99.90;;;;;;6152211;23;20109;-81
2023/01/31 05:24:58;;;;;;;27.83;4.78;;;4.80;99.90;;;;;;6149897;23;20395;-81
2023/01/31 05:27:25;;;;;;;23.35;4.00;;;4.70;99.90;;;;;;6126757;23;20040;-84
2023/01/31 05:29:50;;;;;;;19.55;3.03;;;4.70;99.90;;;;;;6151577;23;20451;-82
2023/01/31 05:32:18;;;;;;;27.05;4.03;;;4.70;99.90;;;;;;6128123;23;20019;-83
2023/01/31 05:34:43;;;;;;;25.38;4.53;;;4.80;99.90;;;;;;6125349;23;20022;-82
2023/01/31 05:37:09;;;;;;;22.25;3.90;;;4.70;99.90;;;;;;6126485;23;20018;-82
2023/01/31 05:39:35;;;;;;;22.50;4.22;;;4.70;99.90;;;;;;6127140;23;20009;-82
2023/01/31 05:42:01;;;;;;;23.80;5.32;;;4.70;99.90;;;;;;6149886;23;20262;-82
2023/01/31 05:44:26;;;;;;;34.72;5.00;;;4.70;99.90;;;;;;6148305;23;20041;-80
2023/01/31 05:46:52;;;;;;;29.92;5.60;;;4.70;99.90;;;;;;6150660;23;20025;-80
2023/01/31 05:49:17;;;;;;;22.08;3.95;;;4.70;99.90;;;;;;6120681;23;20029;-79
2023/01/31 05:51:43;;;;;;;24.17;5.18;;;4.80;99.90;;;;;;6123045;23;20392;-82
2023/01/31 05:54:10;;;;;;;27.40;4.85;;;4.70;99.90;;;;;;6148900;23;20045;-80
2023/01/31 05:56:37;;;;;;;18.52;4.18;;;4.80;99.90;;;;;;6123821;23;20513;-82
2023/01/31 05:59:03;;;;;;;29.63;6.45;;;4.80;99.90;;;;;;6135663;23;20041;-82
2023/01/31 06:01:29;;;;;;;30.35;5.47;;;4.80;99.90;;;;;;6119864;23;20017;-83
2023/01/31 06:03:55;;;;;;;28.02;5.57;;;4.80;99.90;;;;;;6120370;23;20014;-82
2023/01/31 06:06:20;;;;;;;25.95;4.00;;;4.80;99.90;;;;;;6145471;23;20014;-83
2023/01/31 06:08:46;;;;;;;23.98;4.57;;;4.80;99.90;;;;;;6144690;23;20096;-83
2023/01/31 06:11:12;;;;;;;28.25;5.40;;;4.80;99.90;;;;;;6144600;23;20032;-83
2023/01/31 06:13:42;;;;;;;32.35;5.20;;;4.80;99.90;;;;;;6122515;23;20021;-84
2023/01/31 06:16:08;;;;;;;33.38;5.90;;;4.80;99.90;;;;;;6124910;23;20447;-84
2023/01/31 06:18:34;;;;;;;28.77;4.90;;;4.80;99.90;;;;;;6124239;23;20020;-81
2023/01/31 06:20:59;;;;;;;35.38;5.63;;;4.90;99.90;;;;;;6124016;23;20072;-83
2023/01/31 06:23:25;;;;;;;29.10;5.70;;;4.90;99.90;;;;;;6126712;23;20128;-84
2023/01/31 06:25:52;;;;;;;30.95;5.65;;;4.90;99.90;;;;;;6126203;23;20020;-84
2023/01/31 06:28:18;;;;;;;32.10;6.05;;;4.90;99.90;;;;;;6127535;23;20486;-84
2023/01/31 06:30:44;;;;;;;27.13;4.63;;;5.00;99.90;;;;;;6150667;23;20018;-85
2023/01/31 06:33:11;;;;;;;28.55;5.32;;;5.00;99.90;;;;;;6125655;23;20014;-83
2023/01/31 06:35:37;;;;;;;36.83;6.28;;;5.10;99.90;;;;;;6124907;23;20010;-83
2023/01/31 06:38:03;;;;;;;24.88;5.07;;;5.10;99.90;;;;;;6125362;23;20017;-83
2023/01/31 06:40:29;;;;;;;32.40;5.65;;;5.20;99.90;;;;;;6125059;23;20363;-82
2023/01/31 06:42:55;;;;;;;26.25;4.72;;;5.20;99.90;;;;;;6127034;23;20013;-85
2023/01/31 06:45:21;;;;;;;25.20;5.35;;;5.20;99.90;;;;;;6127648;23;20092;-85
2023/01/31 06:47:46;;;;;;;32.63;5.38;;;5.30;99.90;;;;;;6127423;23;20056;-86
2023/01/31 06:50:12;;;;;;;25.17;5.10;;;5.40;99.90;;;;;;6149219;23;20017;-83
2023/01/31 06:52:39;;;;;;;28.15;5.60;;;5.40;99.90;;;;;;6125653;23;20021;-83
2023/01/31 06:55:05;;;;;;;22.58;4.15;;;5.40;99.90;;;;;;6125617;23;20018;-83
2023/01/31 06:57:31;;;;;;;25.88;5.00;;;5.40;99.90;;;;;;6149898;23;20014;-85
2023/01/31 06:59:57;;;;;;;20.25;4.97;;;6.50;99.90;;;;;;6148699;23;20072;-84
2023/01/31 07:02:22;;;;;;;28.95;5.65;;;5.60;99.90;;;;;;6128231;23;20022;-82
2023/01/31 07:04:48;;;;;;;22.38;3.67;;;5.50;99.90;;;;;;6123962;23;20857;-81
2023/01/31 07:07:13;;;;;;;27.27;4.53;;;5.60;99.90;;;;;;6126836;23;20346;-80
2023/01/31 07:09:39;;;;;;;18.02;4.10;;;5.50;99.90;;;;;;6151472;23;20022;-83
2023/01/31 07:12:04;;;;;;;27.75;5.30;;;5.60;99.90;;;;;;6148227;23;20021;-85
2023/01/31 07:14:30;;;;;;;30.83;5.15;;;5.60;99.90;;;;;;6123577;23;20021;-84
2023/01/31 07:16:56;;;;;;;21.70;4.22;;;5.60;99.90;;;;;;6145925;23;20013;-84
2023/01/31 07:19:22;;;;;;;26.48;4.78;;;5.70;99.90;;;;;;6124546;23;20100;-84
2023/01/31 07:21:48;;;;;;;26.08;4.97;;;5.60;99.90;;;;;;6123470;23;20056;-84
2023/01/31 07:24:15;;;;;;;26.00;4.68;;;5.70;99.90;;;;;;6144033;23;20622;-85
2023/01/31 07:26:40;;;;;;;27.95;4.38;;;5.80;99.90;;;;;;6134783;23;20017;-84
2023/01/31 07:29:06;;;;;;;26.73;5.53;;;5.80;99.90;;;;;;6143788;23;20513;-84
2023/01/31 07:31:32;;;;;;;21.42;4.28;;;5.80;99.90;;;;;;6120970;23;20017;-84
2023/01/31 07:33:58;;;;;;;22.67;4.53;;;5.80;99.90;;;;;;6142903;23;20013;-85
2023/01/31 07:36:25;;;;;;;25.27;4.55;;;5.80;99.90;;;;;;6147481;23;20787;-84
2023/01/31 07:38:56;;;;;;;21.80;4.03;;;5.80;99.90;;;;;;6123974;23;20014;-84
2023/01/31 07:41:22;;;;;;;21.25;4.25;;;5.90;99.90;;;;;;6149325;23;20006;-85
2023/01/31 07:43:48;;;;;;;23.40;3.67;;;5.80;99.90;;;;;;6148654;23;20017;-85
2023/01/31 07:46:14;;;;;;;20.75;4.03;;;6.20;99.90;;;;;;6123761;23;20017;-84
2023/01/31 07:48:40;;;;;;;21.90;3.88;;;5.90;99.90;;;;;;6126319;23;20032;-83
2023/01/31 07:52:02;;;;;;;20.58;3.75;;;5.80;99.90;;;;;;6155118;23;20017;-85
2023/01/31 07:54:27;;;;;;;18.30;3.55;;;5.90;99.90;;;;;;6122031;23;20401;-84
2023/01/31 07:56:53;;;;;;;14.85;3.67;;;5.90;99.90;;;;;;6149327;23;20100;-84
2023/01/31 07:59:18;;;;;;;22.77;3.53;;;5.90;99.90;;;;;;6147100;23;20017;-79
2023/01/31 08:04:28;;;;;;;18.80;3.90;;;5.90;99.90;;;;;;6151728;23;20029;-81
2023/01/31 08:06:54;;;;;;;14.77;2.83;;;6.00;99.90;;;;;;6127943;23;20018;-81
2023/01/31 08:09:21;;;;;;;22.00;4.38;;;6.00;99.90;;;;;;6152116;23;20074;-80
2023/01/31 08:11:47;;;;;;;18.50;3.20;;;6.00;99.90;;;;;;6128676;23;20020;-80
2023/01/31 08:14:13;;;;;;;29.55;4.30;;;6.00;99.90;;;;;;6151728;23;20053;-79
2023/01/31 08:16:38;;;;;;;19.38;3.42;;;6.00;99.90;;;;;;6125277;23;20014;-80
2023/01/31 08:19:04;;;;;;;23.67;4.68;;;6.00;99.90;;;;;;6128158;23;20132;-80
2023/01/31 08:21:30;;;;;;;18.25;4.05;;;6.00;99.90;;;;;;6152797;23;20145;-80
2023/01/31 08:23:56;;;;;;;20.67;2.95;;;6.00;99.90;;;;;;6127854;23;20024;-81
2023/01/31 08:26:22;;;;;;;14.93;3.28;;;6.00;99.90;;;;;;6122710;23;20013;-80
2023/01/31 08:28:49;;;;;;;16.90;3.58;;;6.10;99.90;;;;;;6150617;23;20013;-80
2023/01/31 08:31:20;;;;;;;19.23;3.30;;;6.00;99.90;;;;;;6124122;23;20014;-80
2023/01/31 08:33:45;;;;;;;19.67;3.35;;;6.10;99.90;;;;;;6149862;23;20020;-80
2023/01/31 08:36:15;;;;;;;13.30;3.05;;;6.10;99.90;;;;;;6149242;23;20401;-81
2023/01/31 08:38:41;;;;;;;14.88;3.22;;;6.50;99.90;;;;;;6126604;23;20009;-81
2023/01/31 08:41:07;;;;;;;17.10;3.60;;;6.20;99.90;;;;;;6150978;23;20021;-81
2023/01/31 08:43:32;;;;;;;16.67;3.47;;;6.20;99.90;;;;;;6148580;23;20025;-81
2023/01/31 08:45:58;;;;;;;24.35;4.45;;;6.30;99.90;;;;;;6150118;23;20025;-81
2023/01/31 08:48:24;;;;;;;15.68;3.50;;;6.20;99.90;;;;;;6150796;23;20040;-81
2023/01/31 08:50:49;;;;;;;15.95;4.28;;;6.40;99.90;;;;;;6116379;23;20017;-80
2023/01/31 08:53:15;;;;;;;25.20;3.88;;;6.30;99.90;;;;;;6151937;23;20021;-81
2023/01/31 08:55:40;;;;;;;21.83;3.45;;;6.30;99.90;;;;;;6149956;23;20036;-81
2023/01/31 08:58:06;;;;;;;24.38;3.83;;;6.30;99.90;;;;;;6127999;23;20018;-81
2023/01/31 09:00:32;;;;;;;19.88;2.97;;;6.40;99.90;;;;;;6151515;23;20021;-80
2023/01/31 09:02:59;;;;;;;21.25;3.00;;;6.30;99.90;;;;;;6150768;23;20692;-81
2023/01/31 09:05:26;;;;;;;21.85;3.42;;;6.40;99.90;;;;;;6151607;23;20010;-82
2023/01/31 09:07:52;;;;;;;20.52;3.20;;;6.40;99.90;;;;;;6152810;23;20033;-80
2023/01/31 09:10:19;;;;;;;22.15;2.83;;;6.40;99.90;;;;;;6127073;23;20028;-81
2023/01/31 09:12:45;;;;;;;21.55;3.60;;;6.40;99.90;;;;;;6125919;23;20024;-81
2023/01/31 09:15:11;;;;;;;18.27;2.80;;;6.50;99.90;;;;;;6151071;23;20017;-80
2023/01/31 09:17:38;;;;;;;13.10;3.15;;;6.40;99.90;;;;;;6150266;23;20057;-80
2023/01/31 09:20:05;;;;;;;18.33;3.97;;;6.40;99.90;;;;;;6149409;23;20014;-80
2023/01/31 09:22:32;;;;;;;16.23;3.38;;;6.50;99.90;;;;;;6118837;23;20118;-80
2023/01/31 09:24:59;;;;;;;23.00;3.60;;;6.50;99.90;;;;;;6107856;23;20320;-80
2023/01/31 09:27:24;;;;;;;17.45;3.13;;;6.50;99.90;;;;;;6122938;23;20017;-80
2023/01/31 09:29:50;;;;;;;18.45;2.88;;;6.50;99.90;;;;;;6123350;23;20382;-81
2023/01/31 09:32:15;;;;;;;20.00;4.18;;;6.60;99.90;;;;;;6148730;23;20013;-81
2023/01/31 09:34:41;;;;;;;18.08;3.45;;;6.50;99.90;;;;;;6122417;23;20075;-81
2023/01/31 09:37:06;;;;;;;23.02;3.67;;;6.60;99.90;;;;;;6121368;23;20014;-80
2023/01/31 09:39:32;;;;;;;20.10;3.92;;;6.60;99.90;;;;;;6122816;23;20865;-80
2023/01/31 09:42:12;;;;;;;26.83;4.82;;;6.60;99.90;;;;;;6147073;23;20040;-81
2023/01/31 09:44:44;;;;;;;14.88;3.22;;;6.70;99.90;;;;;;6144067;23;20548;-80
2023/01/31 09:47:10;;;;;;;18.27;2.95;;;6.70;99.90;;;;;;6148587;23;20013;-80
2023/01/31 09:49:46;;;;;;;30.40;4.53;;;6.80;99.90;;;;;;6121741;23;20017;-80
2023/01/31 09:52:11;;;;;;;18.40;3.88;;;6.80;99.90;;;;;;6120955;23;20013;-81
2023/01/31 09:54:39;;;;;;;19.88;4.07;;;6.80;99.90;;;;;;6121389;23;20024;-81
2023/01/31 09:57:11;;;;;;;22.60;3.92;;;6.80;99.90;;;;;;6147425;23;20013;-81
2023/01/31 10:00:04;;;;;;;21.70;3.70;;;6.90;99.90;;;;;;6148111;23;20017;-80
2023/01/31 10:03:11;;;;;;;20.35;3.45;;;6.90;99.90;;;;;;6146385;23;20340;-80
2023/01/31 10:05:44;;;;;;;20.45;4.53;;;6.90;99.90;;;;;;6114276;23;20036;-80
2023/01/31 10:08:25;;;;;;;17.75;3.53;;;6.90;99.90;;;;;;6123712;23;20142;-80
2023/01/31 10:10:53;;;;;;;20.92;2.97;;;6.90;99.90;;;;;;6123176;23;20021;-81
2023/01/31 10:13:36;;;;;;;20.77;3.58;;;6.90;99.90;;;;;;6122961;23;20009;-79
2023/01/31 10:16:11;;;;;;;19.05;3.38;;;6.90;99.90;;;;;;6145402;23;20052;-81
2023/01/31 10:18:43;;;;;;;23.85;4.70;;;6.90;99.90;;;;;;6122429;23;20013;-80
2023/01/31 10:21:13;;;;;;;24.15;4.07;;;6.90;99.90;;;;;;6148267;23;20013;-81
2023/01/31 10:23:47;;;;;;;23.63;3.92;;;6.90;99.90;;;;;;6127067;23;20009;-81
2023/01/31 10:26:25;;;;;;;13.85;3.97;;;6.90;99.90;;;;;;6123872;23;20041;-81
2023/01/31 10:29:27;;;;;;;25.90;4.72;;;6.90;99.90;;;;;;6127385;23;20037;-80
2023/01/31 10:32:03;;;;;;;25.52;3.65;;;7.00;99.90;;;;;;6127263;23;20017;-81
2023/01/31 10:34:43;;;;;;;24.50;3.47;;;7.10;99.90;;;;;;6125991;23;20013;-81
2023/01/31 10:37:40;;;;;;;25.65;4.88;;;7.00;99.90;;;;;;6150363;23;20332;-81
2023/01/31 10:40:16;;;;;;;15.77;3.25;;;7.00;99.90;;;;;;6126592;23;20017;-81
2023/01/31 10:42:48;;;;;;;25.25;4.05;;;7.00;99.90;;;;;;6150974;23;20013;-81
2023/01/31 10:45:18;;;;;;;16.48;3.00;;;7.10;99.90;;;;;;6149749;23;20029;-81
2023/01/31 10:48:03;;;;;;;14.73;3.72;;;7.10;99.90;;;;;;6125914;23;20104;-80
2023/01/31 10:50:37;;;;;;;16.92;3.30;;;7.10;99.90;;;;;;6151232;23;20021;-81
2023/01/31 10:53:17;;;;;;;24.70;4.20;;;7.10;99.90;;;;;;6151932;23;20101;-81
2023/01/31 10:55:52;;;;;;;20.48;4.60;;;7.10;99.90;;;;;;6149203;23;20017;-81
2023/01/31 10:58:21;;;;;;;22.63;4.68;;;7.10;99.90;;;;;;6127034;23;20025;-80
2023/01/31 11:00:47;;;;;;;24.83;4.38;;;7.10;99.90;;;;;;6150740;23;20036;-80
2023/01/31 11:03:14;;;;;;;20.63;4.65;;;7.00;99.90;;;;;;6125425;23;20013;-80
2023/01/31 11:05:51;;;;;;;17.00;4.88;;;7.00;99.90;;;;;;6124812;23;20470;-81
2023/01/31 11:08:42;;;;;;;26.08;5.25;;;7.10;99.90;;;;;;6126704;23;20069;-81
2023/01/31 11:11:19;;;;;;;23.98;4.43;;;7.10;99.90;;;;;;6126529;23;20055;-80
2023/01/31 11:14:05;;;;;;;24.83;4.47;;;7.00;99.90;;;;;;6129038;23;20005;-81
2023/01/31 11:16:38;;;;;;;22.27;4.10;;;7.10;99.90;;;;;;6125293;23;20064;-80
2023/01/31 11:19:18;;;;;;;24.50;3.97;;;7.10;99.90;;;;;;6152503;23;20016;-80
2023/01/31 11:21:49;;;;;;;22.95;3.35;;;7.10;99.90;;;;;;6128937;23;20021;-80
2023/01/31 11:24:19;;;;;;;18.08;3.75;;;7.10;99.90;;;;;;6128487;23;20029;-81
2023/01/31 11:27:08;;;;;;;24.27;4.80;;;7.10;99.90;;;;;;6152171;23;20028;-80
2023/01/31 11:29:42;;;;;;;23.20;4.63;;;7.10;99.90;;;;;;6152129;23;20889;-80
2023/01/31 11:32:20;;;;;;;16.92;3.25;;;7.10;99.90;;;;;;6128323;23;20671;-81
2023/01/31 11:35:04;;;;;;;23.80;3.95;;;7.10;99.90;;;;;;6152077;23;20014;-81
2023/01/31 11:37:32;;;;;;;31.20;5.13;;;7.10;99.90;;;;;;6153856;23;20009;-80
2023/01/31 11:40:22;;;;;;;14.95;2.92;;;7.20;99.90;;;;;;6127959;23;20041;-80
2023/01/31 11:43:06;;;;;;;24.77;4.10;;;7.20;99.90;;;;;;6109099;23;20020;-81
2023/01/31 11:45:37;;;;;;;25.58;3.67;;;7.20;99.90;;;;;;6153072;23;20014;-80
2023/01/31 11:48:12;;;;;;;30.33;5.13;;;7.20;99.90;;;;;;6153779;23;20650;-81
2023/01/31 11:50:42;;;;;;;21.25;4.05;;;7.20;99.90;;;;;;6152305;23;20487;-80
2023/01/31 11:53:21;;;;;;;27.55;3.88;;;7.10;99.90;;;;;;6154613;23;20041;-81
2023/01/31 11:55:48;;;;;;;20.25;5.00;;;7.20;99.90;;;;;;6126806;23;20037;-81
2023/01/31 11:58:35;;;;;;;25.15;3.55;;;7.20;99.90;;;;;;6154218;23;20076;-81
2023/01/31 12:01:07;;;;;;;23.77;3.90;;;7.20;99.90;;;;;;6153838;23;20005;-82
2023/01/31 12:03:33;;;;;;;21.98;3.72;;;7.20;99.90;;;;;;6153591;23;20017;-80
2023/01/31 12:06:01;;;;;;;24.10;3.60;;;7.20;99.90;;;;;;6152445;23;20462;-80
2023/01/31 12:08:40;;;;;;;21.10;3.63;;;7.40;99.90;;;;;;6154382;23;20010;-80
2023/01/31 12:11:18;;;;;;;19.15;2.78;;;7.30;99.90;;;;;;6152785;23;20018;-80
2023/01/31 12:13:52;;;;;;;24.40;3.20;;;7.40;99.90;;;;;;6129930;23;20041;-80
2023/01/31 12:16:20;;;;;;;19.88;2.55;;;7.50;99.90;;;;;;6128206;23;20013;-80
2023/01/31 12:19:07;;;;;;;19.60;2.70;;;7.60;99.90;;;;;;6128431;23;20009;-80
2023/01/31 12:21:58;;;;;;;18.35;3.72;;;7.60;99.90;;;;;;6152384;23;20009;-80
2023/01/31 12:24:50;;;;;;;20.08;3.63;;;7.60;99.90;;;;;;6153191;23;20013;-80
2023/01/31 12:27:45;;;;;;;18.38;3.75;;;7.70;99.90;;;;;;6153288;23;20024;-81
2023/01/31 12:30:34;;;;;;;20.63;3.25;;;7.80;99.90;;;;;;6099354;23;20021;-81
2023/01/31 12:33:13;;;;;;;18.42;2.60;;;7.90;99.90;;;;;;6129238;23;20017;-80
2023/01/31 12:36:02;;;;;;;17.30;2.83;;;8.00;99.90;;;;;;6151692;23;20025;-80
2023/01/31 12:38:43;;;;;;;13.68;2.42;;;8.00;99.90;;;;;;6128499;23;20033;-80
2023/01/31 12:41:30;;;;;;;19.55;2.72;;;8.00;99.90;;;;;;6128254;23;20031;-80
2023/01/31 12:44:04;;;;;;;12.52;2.25;;;8.10;99.90;;;;;;6152824;23;20024;-81
2023/01/31 12:47:07;;;;;;;17.35;3.10;;;8.10;99.90;;;;;;6127634;23;20025;-80
2023/01/31 12:49:50;;;;;;;17.67;2.75;;;8.20;99.90;;;;;;6127671;23;20036;-80
2023/01/31 12:52:37;;;;;;;14.00;3.25;;;8.20;99.90;;;;;;6128135;23;20024;-80
2023/01/31 12:55:12;;;;;;;18.58;2.53;;;8.30;99.90;;;;;;6127926;23;20024;-80
2023/01/31 12:58:13;;;;;;;17.85;3.88;;;8.40;99.90;;;;;;6151548;23;20018;-80
2023/01/31 13:01:03;;;;;;;13.95;3.25;;;8.40;99.90;;;;;;6128351;23;20028;-80
2023/01/31 13:03:56;;;;;;;13.00;2.58;;;8.40;99.90;;;;;;6128207;23;20458;-80
2023/01/31 13:06:37;;;;;;;11.80;1.77;;;8.40;99.90;;;;;;6150892;23;20029;-80
2023/01/31 13:09:17;;;;;;;16.27;3.00;;;8.50;99.90;;;;;;6129270;23;20401;-80
2023/01/31 13:11:55;;;;;;;16.70;2.83;;;8.60;99.90;;;;;;6127592;23;20093;-80
2023/01/31 13:14:25;;;;;;;18.02;2.97;;;8.70;99.90;;;;;;6152556;23;20019;-80